sensor_id;sensor_type;location;lat;lon;timestamp;pressure;altitude;pressure_sealevel;temperature;humidity
42621;BME280;28252;53.336;-6.298;2023-03-03T00:00:17;102504.94;;;21.72;100.00
42621;BME280;28252;53.336;-6.298;2023-03-03T00:00:49;102505.78;;;21.72;100.00
42621;BME280;28252;53.336;-6.298;2023-03-03T00:01:25;102506.81;;;21.71;100.00
42621;BME280;28252;53.336;-6.298;2023-03-03T00:02:01;102508.63;;;21.71;100.00
42621;BME280;28252;53.336;-6.298;2023-03-03T00:07:32;102493.91;;;21.63;100.00
42621;BME280;28252;53.336;-6.298;2023-03-03T00:13:14;102498.03;;;21.58;100.00
42621;BME280;28252;53.336;-6.298;2023-03-03T00:13:51;102500.03;;;21.56;100.00
42621;BME280;28252;53.336;-6.298;2023-03-03T00:14:29;102503.59;;;21.56;100.00
42621;BME280;28252;53.336;-6.298;2023-03-03T00:15:01;102498.28;;;21.55;100.00
42621;BME280;28252;53.336;-6.298;2023-03-03T00:15:46;102501.84;;;21.55;100.00
42621;BME280;28252;53.336;-6.298;2023-03-03T00:16:52;102502.00;;;21.54;100.00
42621;BME280;28252;53.336;-6.298;2023-03-03T00:17:27;102498.44;;;21.53;100.00
42621;BME280;28252;53.336;-6.298;2023-03-03T00:17:58;102498.28;;;21.55;100.00
42621;BME280;28252;53.336;-6.298;2023-03-03T00:18:32;102499.28;;;21.54;100.00
42621;BME280;28252;53.336;-6.298;2023-03-03T00:20:56;102495.97;;;21.50;100.00
42621;BME280;28252;53.336;-6.298;2023-03-03T00:21:34;102495.13;;;21.50;100.00
42621;BME280;28252;53.336;-6.298;2023-03-03T00:22:13;102488.88;;;21.49;100.00
42621;BME280;28252;53.336;-6.298;2023-03-03T00:22:49;102498.81;;;21.49;100.00
42621;BME280;28252;53.336;-6.298;2023-03-03T00:23:29;102498.81;;;21.49;100.00
42621;BME280;28252;53.336;-6.298;2023-03-03T00:24:16;102498.81;;;21.49;100.00
42621;BME280;28252;53.336;-6.298;2023-03-03T00:24:52;102491.69;;;21.48;100.00
42621;BME280;28252;53.336;-6.298;2023-03-03T00:25:30;102497.13;;;21.48;100.00
42621;BME280;28252;53.336;-6.298;2023-03-03T00:26:17;102491.69;;;21.48;100.00
42621;BME280;28252;53.336;-6.298;2023-03-03T00:26:51;102506.25;;;21.47;100.00
42621;BME280;28252;53.336;-6.298;2023-03-03T00:27:27;102496.38;;;21.45;100.00
42621;BME280;28252;53.336;-6.298;2023-03-03T00:28:50;102500.81;;;21.47;100.00
42621;BME280;28252;53.336;-6.298;2023-03-03T00:30:00;102505.50;;;21.44;100.00
42621;BME280;28252;53.336;-6.298;2023-03-03T00:30:31;102500.91;;;21.45;100.00
42621;BME280;28252;53.336;-6.298;2023-03-03T00:31:05;102505.50;;;21.44;100.00
42621;BME280;28252;53.336;-6.298;2023-03-03T00:31:44;102499.34;;;21.42;100.00
42621;BME280;28252;53.336;-6.298;2023-03-03T00:32:22;102510.19;;;21.42;100.00
42621;BME280;28252;53.336;-6.298;2023-03-03T00:32:57;102503.94;;;21.42;100.00
42621;BME280;28252;53.336;-6.298;2023-03-03T00:33:33;102502.06;;;21.42;100.00
42621;BME280;28252;53.336;-6.298;2023-03-03T00:34:46;102503.94;;;21.42;100.00
42621;BME280;28252;53.336;-6.298;2023-03-03T00:35:54;102504.06;;;21.40;100.00
42621;BME280;28252;53.336;-6.298;2023-03-03T00:36:38;102504.06;;;21.40;100.00
42621;BME280;28252;53.336;-6.298;2023-03-03T00:37:19;102501.47;;;21.39;100.00
42621;BME280;28252;53.336;-6.298;2023-03-03T00:37:58;102515.88;;;21.39;100.00
42621;BME280;28252;53.336;-6.298;2023-03-03T00:38:33;102497.03;;;21.38;100.00
42621;BME280;28252;53.336;-6.298;2023-03-03T00:39:18;102502.47;;;21.38;100.00
42621;BME280;28252;53.336;-6.298;2023-03-03T00:39:51;102504.31;;;21.37;100.00
42621;BME280;28252;53.336;-6.298;2023-03-03T00:40:24;102506.19;;;21.37;100.00
42621;BME280;28252;53.336;-6.298;2023-03-03T00:40:58;102504.44;;;21.36;100.00
42621;BME280;28252;53.336;-6.298;2023-03-03T00:41:33;102508.00;;;21.36;100.00
42621;BME280;28252;53.336;-6.298;2023-03-03T00:42:13;102503.59;;;21.35;100.00
42621;BME280;28252;53.336;-6.298;2023-03-03T00:42:51;102504.44;;;21.36;100.00
42621;BME280;28252;53.336;-6.298;2023-03-03T00:43:23;102509.03;;;21.35;100.00
42621;BME280;28252;53.336;-6.298;2023-03-03T00:43:58;102507.28;;;21.34;100.00
42621;BME280;28252;53.336;-6.298;2023-03-03T00:44:39;102502.72;;;21.35;100.00
42621;BME280;28252;53.336;-6.298;2023-03-03T00:45:59;102506.44;;;21.34;100.00
42621;BME280;28252;53.336;-6.298;2023-03-03T00:46:30;102503.88;;;21.32;100.00
42621;BME280;28252;53.336;-6.298;2023-03-03T00:47:46;102504.84;;;21.31;100.00
42621;BME280;28252;53.336;-6.298;2023-03-03T00:48:07;102504.84;;;21.31;100.00
42621;BME280;28252;53.336;-6.298;2023-03-03T00:48:40;102499.56;;;21.30;100.00
42621;BME280;28252;53.336;-6.298;2023-03-03T00:49:20;102505.84;;;21.30;100.00
42621;BME280;28252;53.336;-6.298;2023-03-03T00:50:17;102502.38;;;21.28;100.00
42621;BME280;28252;53.336;-6.298;2023-03-03T00:50:46;102504.13;;;21.29;100.00
42621;BME280;28252;53.336;-6.298;2023-03-03T00:51:55;102506.13;;;21.27;100.00
42621;BME280;28252;53.336;-6.298;2023-03-03T00:52:31;102509.81;;;21.26;100.00
42621;BME280;28252;53.336;-6.298;2023-03-03T00:53:09;102498.97;;;21.26;100.00
42621;BME280;28252;53.336;-6.298;2023-03-03T00:53:45;102502.69;;;21.25;100.00
42621;BME280;28252;53.336;-6.298;2023-03-03T00:54:18;102503.53;;;21.25;100.00
42621;BME280;28252;53.336;-6.298;2023-03-03T00:54:52;102507.22;;;21.24;100.00
42621;BME280;28252;53.336;-6.298;2023-03-03T00:55:28;102503.66;;;21.24;100.00
42621;BME280;28252;53.336;-6.298;2023-03-03T00:56:02;102506.38;;;21.24;100.00
42621;BME280;28252;53.336;-6.298;2023-03-03T00:56:38;102504.66;;;21.23;100.00
42621;BME280;28252;53.336;-6.298;2023-03-03T00:57:11;102499.22;;;21.23;100.00
42621;BME280;28252;53.336;-6.298;2023-03-03T00:57:43;102504.66;;;21.23;100.00
42621;BME280;28252;53.336;-6.298;2023-03-03T00:58:21;102501.22;;;21.21;100.00
42621;BME280;28252;53.336;-6.298;2023-03-03T00:58:52;102502.06;;;21.21;100.00
42621;BME280;28252;53.336;-6.298;2023-03-03T00:59:27;102506.63;;;21.21;100.00
42621;BME280;28252;53.336;-6.298;2023-03-03T01:00:01;102500.22;;;21.22;100.00
42621;BME280;28252;53.336;-6.298;2023-03-03T01:00:37;102497.66;;;21.20;100.00
42621;BME280;28252;53.336;-6.298;2023-03-03T01:01:10;102499.50;;;21.20;100.00
42621;BME280;28252;53.336;-6.298;2023-03-03T01:01:51;102501.34;;;21.19;100.00
42621;BME280;28252;53.336;-6.298;2023-03-03T01:02:26;102505.91;;;21.19;100.00
42621;BME280;28252;53.336;-6.298;2023-03-03T01:03:03;102506.91;;;21.18;100.00
42621;BME280;28252;53.336;-6.298;2023-03-03T01:03:37;102504.19;;;21.18;100.00
42621;BME280;28252;53.336;-6.298;2023-03-03T01:04:10;102507.91;;;21.17;100.00
42621;BME280;28252;53.336;-6.298;2023-03-03T01:04:42;102501.47;;;21.18;100.00
42621;BME280;28252;53.336;-6.298;2023-03-03T01:05:15;102501.59;;;21.16;100.00
42621;BME280;28252;53.336;-6.298;2023-03-03T01:05:51;102505.19;;;21.17;100.00
42621;BME280;28252;53.336;-6.298;2023-03-03T01:06:27;102514.31;;;21.16;100.00
42621;BME280;28252;53.336;-6.298;2023-03-03T01:07:03;102503.47;;;21.16;100.00
42621;BME280;28252;53.336;-6.298;2023-03-03T01:07:36;102501.75;;;21.15;100.00
42621;BME280;28252;53.336;-6.298;2023-03-03T01:08:12;102507.19;;;21.15;100.00
42621;BME280;28252;53.336;-6.298;2023-03-03T01:08:45;102502.75;;;21.14;100.00
42621;BME280;28252;53.336;-6.298;2023-03-03T01:09:19;102498.31;;;21.13;99.59
42621;BME280;28252;53.336;-6.298;2023-03-03T01:09:52;102502.03;;;21.12;100.00
42621;BME280;28252;53.336;-6.298;2023-03-03T01:10:27;102509.16;;;21.13;100.00
42621;BME280;28252;53.336;-6.298;2023-03-03T01:11:22;102501.16;;;21.11;100.00
42621;BME280;28252;53.336;-6.298;2023-03-03T01:11:56;102511.13;;;21.11;100.00
42621;BME280;28252;53.336;-6.298;2023-03-03T01:12:29;102504.00;;;21.10;100.00
42621;BME280;28252;53.336;-6.298;2023-03-03T01:13:03;102505.72;;;21.11;100.00
42621;BME280;28252;53.336;-6.298;2023-03-03T01:13:41;102502.28;;;21.08;100.00
42621;BME280;28252;53.336;-6.298;2023-03-03T01:14:14;102499.56;;;21.08;100.00
42621;BME280;28252;53.336;-6.298;2023-03-03T01:14:50;102499.69;;;21.07;100.00
42621;BME280;28252;53.336;-6.298;2023-03-03T01:15:22;102510.53;;;21.07;100.00
42621;BME280;28252;53.336;-6.298;2023-03-03T01:15:56;102509.69;;;21.06;100.00
42621;BME280;28252;53.336;-6.298;2023-03-03T01:16:29;102502.41;;;21.07;99.91
42621;BME280;28252;53.336;-6.298;2023-03-03T01:17:05;102504.28;;;21.06;100.00
42621;BME280;28252;53.336;-6.298;2023-03-03T01:17:39;102509.69;;;21.06;99.67
42621;BME280;28252;53.336;-6.298;2023-03-03T01:18:10;102509.69;;;21.06;100.00
42621;BME280;28252;53.336;-6.298;2023-03-03T01:18:46;102503.38;;;21.06;100.00
42621;BME280;28252;53.336;-6.298;2023-03-03T01:19:17;102496.28;;;21.05;99.99
42621;BME280;28252;53.336;-6.298;2023-03-03T01:19:50;102505.25;;;21.05;99.00
42621;BME280;28252;53.336;-6.298;2023-03-03T01:20:25;102510.66;;;21.05;98.76
42621;BME280;28252;53.336;-6.298;2023-03-03T01:20:57;102507.13;;;21.05;98.52
42621;BME280;28252;53.336;-6.298;2023-03-03T01:21:30;102501.69;;;21.05;98.59
42621;BME280;28252;53.336;-6.298;2023-03-03T01:22:06;102501.69;;;21.05;97.92
42621;BME280;28252;53.336;-6.298;2023-03-03T01:22:41;102500.84;;;21.04;99.36
42621;BME280;28252;53.336;-6.298;2023-03-03T01:23:14;102504.53;;;21.03;99.39
42621;BME280;28252;53.336;-6.298;2023-03-03T01:23:50;102503.69;;;21.03;99.61
42621;BME280;28252;53.336;-6.298;2023-03-03T01:24:25;102505.50;;;21.02;99.11
42621;BME280;28252;53.336;-6.298;2023-03-03T01:25:01;102504.53;;;21.03;99.79
42621;BME280;28252;53.336;-6.298;2023-03-03T01:25:39;102510.06;;;21.02;99.95
42621;BME280;28252;53.336;-6.298;2023-03-03T01:26:13;102512.91;;;21.00;99.49
42621;BME280;28252;53.336;-6.298;2023-03-03T01:26:48;102508.47;;;20.99;99.55
42621;BME280;28252;53.336;-6.298;2023-03-03T01:27:19;102507.63;;;20.99;99.90
42621;BME280;28252;53.336;-6.298;2023-03-03T01:27:58;102511.34;;;20.98;100.00
42621;BME280;28252;53.336;-6.298;2023-03-03T01:28:32;102503.34;;;20.96;99.74
42621;BME280;28252;53.336;-6.298;2023-03-03T01:29:05;102509.63;;;20.97;100.00
42621;BME280;28252;53.336;-6.298;2023-03-03T01:29:38;102507.88;;;20.96;99.86
42621;BME280;28252;53.336;-6.298;2023-03-03T01:30:19;102507.88;;;20.96;100.00
42621;BME280;28252;53.336;-6.298;2023-03-03T01:30:54;102517.88;;;20.95;100.00
42621;BME280;28252;53.336;-6.298;2023-03-03T01:31:32;102508.00;;;20.94;99.91
42621;BME280;28252;53.336;-6.298;2023-03-03T01:32:05;102505.31;;;20.94;100.00
42621;BME280;28252;53.336;-6.298;2023-03-03T01:32:38;102511.72;;;20.93;100.00
42621;BME280;28252;53.336;-6.298;2023-03-03T01:33:09;102512.56;;;20.94;100.00
42621;BME280;28252;53.336;-6.298;2023-03-03T01:33:43;102513.59;;;20.93;100.00
42621;BME280;28252;53.336;-6.298;2023-03-03T01:34:16;102511.00;;;20.91;100.00
42621;BME280;28252;53.336;-6.298;2023-03-03T01:34:47;102514.69;;;20.90;100.00
42621;BME280;28252;53.336;-6.298;2023-03-03T01:35:24;102509.28;;;20.90;100.00
42621;BME280;28252;53.336;-6.298;2023-03-03T01:35:58;102514.69;;;20.90;100.00
42621;BME280;28252;53.336;-6.298;2023-03-03T01:36:29;102508.44;;;20.89;100.00
42621;BME280;28252;53.336;-6.298;2023-03-03T01:37:02;102507.53;;;20.89;100.00
42621;BME280;28252;53.336;-6.298;2023-03-03T01:37:35;102512.97;;;20.89;100.00
42621;BME280;28252;53.336;-6.298;2023-03-03T01:38:08;102511.25;;;20.88;100.00
42621;BME280;28252;53.336;-6.298;2023-03-03T01:38:41;102514.81;;;20.88;100.00
42621;BME280;28252;53.336;-6.298;2023-03-03T01:39:18;102504.13;;;20.87;99.69
42621;BME280;28252;53.336;-6.298;2023-03-03T01:39:50;102513.25;;;20.86;99.75
42621;BME280;28252;53.336;-6.298;2023-03-03T01:40:24;102504.13;;;20.87;100.00
42621;BME280;28252;53.336;-6.298;2023-03-03T01:40:58;102518.66;;;20.86;100.00
42621;BME280;28252;53.336;-6.298;2023-03-03T01:41:29;102509.66;;;20.85;100.00
42621;BME280;28252;53.336;-6.298;2023-03-03T01:42:05;102509.78;;;20.84;100.00
42621;BME280;28252;53.336;-6.298;2023-03-03T01:42:41;102506.09;;;20.85;100.00
42621;BME280;28252;53.336;-6.298;2023-03-03T01:43:14;102503.53;;;20.83;99.92
42621;BME280;28252;53.336;-6.298;2023-03-03T01:43:50;102515.19;;;20.84;99.93
42621;BME280;28252;53.336;-6.298;2023-03-03T01:44:21;102513.50;;;20.83;99.33
42621;BME280;28252;53.336;-6.298;2023-03-03T01:47:31;102508.34;;;20.80;99.66
42621;BME280;28252;53.336;-6.298;2023-03-03T01:48:08;102506.59;;;20.79;99.72
42621;BME280;28252;53.336;-6.298;2023-03-03T01:48:41;102506.59;;;20.79;99.78
42621;BME280;28252;53.336;-6.298;2023-03-03T01:49:25;102510.31;;;20.78;99.43
42621;BME280;28252;53.336;-6.298;2023-03-03T01:50:02;102511.19;;;20.78;99.89
42621;BME280;28252;53.336;-6.298;2023-03-03T01:51:22;102503.19;;;20.77;99.96
42621;BME280;28252;53.336;-6.298;2023-03-03T01:51:58;102513.16;;;20.76;99.92
42621;BME280;28252;53.336;-6.298;2023-03-03T01:52:35;102514.13;;;20.75;99.95
42621;BME280;28252;53.336;-6.298;2023-03-03T01:53:14;102516.00;;;20.75;99.79
42621;BME280;28252;53.336;-6.298;2023-03-03T01:53:50;102508.84;;;20.74;100.00
42621;BME280;28252;53.336;-6.298;2023-03-03T01:54:32;102514.25;;;20.74;99.86
42621;BME280;28252;53.336;-6.298;2023-03-03T01:55:15;102512.56;;;20.73;100.00
42621;BME280;28252;53.336;-6.298;2023-03-03T01:55:49;102510.84;;;20.71;100.00
42621;BME280;28252;53.336;-6.298;2023-03-03T01:56:23;102505.41;;;20.71;100.00
42621;BME280;28252;53.336;-6.298;2023-03-03T01:56:57;102505.41;;;20.71;99.95
42621;BME280;28252;53.336;-6.298;2023-03-03T01:57:36;102511.84;;;20.70;99.94
42621;BME280;28252;53.336;-6.298;2023-03-03T01:58:13;102506.44;;;20.70;99.79
42621;BME280;28252;53.336;-6.298;2023-03-03T01:58:48;102505.53;;;20.70;100.00
42621;BME280;28252;53.336;-6.298;2023-03-03T01:59:26;102514.56;;;20.70;100.00
42621;BME280;28252;53.336;-6.298;2023-03-03T02:00:04;102502.84;;;20.70;99.89
42621;BME280;28252;53.336;-6.298;2023-03-03T02:00:44;102502.84;;;20.70;99.85
42621;BME280;28252;53.336;-6.298;2023-03-03T02:01:18;102502.00;;;20.69;100.00
42621;BME280;28252;53.336;-6.298;2023-03-03T02:01:58;102500.38;;;20.67;99.56
42621;BME280;28252;53.336;-6.298;2023-03-03T02:02:32;102505.66;;;20.68;100.00
42621;BME280;28252;53.336;-6.298;2023-03-03T02:03:06;102496.81;;;20.66;100.00
42621;BME280;28252;53.336;-6.298;2023-03-03T02:04:40;102503.25;;;20.65;100.00
42621;BME280;28252;53.336;-6.298;2023-03-03T02:05:13;102499.66;;;20.65;100.00
42621;BME280;28252;53.336;-6.298;2023-03-03T02:05:52;102505.06;;;20.65;99.76
42621;BME280;28252;53.336;-6.298;2023-03-03T02:06:26;102504.22;;;20.64;100.00
42621;BME280;28252;53.336;-6.298;2023-03-03T02:07:00;102499.78;;;20.63;99.74
42621;BME280;28252;53.336;-6.298;2023-03-03T02:07:34;102502.50;;;20.63;99.90
42621;BME280;28252;53.336;-6.298;2023-03-03T02:08:11;102502.50;;;20.63;99.91
42621;BME280;28252;53.336;-6.298;2023-03-03T02:09:22;102504.44;;;20.61;99.67
42621;BME280;28252;53.336;-6.298;2023-03-03T02:10:35;102502.75;;;20.60;100.00
42621;BME280;28252;53.336;-6.298;2023-03-03T02:11:13;102501.00;;;20.59;100.00
42621;BME280;28252;53.336;-6.298;2023-03-03T02:11:51;102503.72;;;20.59;100.00
42621;BME280;28252;53.336;-6.298;2023-03-03T02:13:22;102504.56;;;20.60;100.00
42621;BME280;28252;53.336;-6.298;2023-03-03T02:13:59;102495.59;;;20.59;100.00
42621;BME280;28252;53.336;-6.298;2023-03-03T02:14:32;102499.28;;;20.58;100.00
42621;BME280;28252;53.336;-6.298;2023-03-03T02:15:15;102505.56;;;20.59;100.00
42621;BME280;28252;53.336;-6.298;2023-03-03T02:17:03;102502.13;;;20.57;100.00
42621;BME280;28252;53.336;-6.298;2023-03-03T02:17:39;102503.00;;;20.57;100.00
42621;BME280;28252;53.336;-6.298;2023-03-03T02:18:13;102498.56;;;20.56;100.00
42621;BME280;28252;53.336;-6.298;2023-03-03T02:18:47;102502.28;;;20.55;100.00
42621;BME280;28252;53.336;-6.298;2023-03-03T02:21:15;102504.97;;;20.55;100.00
42621;BME280;28252;53.336;-6.298;2023-03-03T02:21:49;102504.97;;;20.55;100.00
42621;BME280;28252;53.336;-6.298;2023-03-03T02:22:31;102505.97;;;20.54;99.98
42621;BME280;28252;53.336;-6.298;2023-03-03T02:23:52;102508.66;;;20.54;100.00
42621;BME280;28252;53.336;-6.298;2023-03-03T02:24:45;102504.22;;;20.53;100.00
42621;BME280;28252;53.336;-6.298;2023-03-03T02:25:33;102507.81;;;20.53;99.98
42621;BME280;28252;53.336;-6.298;2023-03-03T02:26:07;102507.81;;;20.53;100.00
42621;BME280;28252;53.336;-6.298;2023-03-03T02:26:41;102506.94;;;20.53;99.89
42621;BME280;28252;53.336;-6.298;2023-03-03T02:27:14;102507.94;;;20.52;100.00
42621;BME280;28252;53.336;-6.298;2023-03-03T02:27:50;102508.91;;;20.51;100.00
42621;BME280;28252;53.336;-6.298;2023-03-03T02:28:28;102503.50;;;20.51;100.00
42621;BME280;28252;53.336;-6.298;2023-03-03T02:29:00;102509.91;;;20.50;100.00
42621;BME280;28252;53.336;-6.298;2023-03-03T02:29:32;102505.47;;;20.49;100.00
42621;BME280;28252;53.336;-6.298;2023-03-03T02:30:13;102507.22;;;20.50;100.00
42621;BME280;28252;53.336;-6.298;2023-03-03T02:30:46;102505.47;;;20.49;100.00
42621;BME280;28252;53.336;-6.298;2023-03-03T02:31:22;102501.03;;;20.48;100.00
42621;BME280;28252;53.336;-6.298;2023-03-03T02:31:59;102501.16;;;20.46;100.00
42621;BME280;28252;53.336;-6.298;2023-03-03T02:32:37;102499.34;;;20.47;99.35
42621;BME280;28252;53.336;-6.298;2023-03-03T02:33:13;102507.47;;;20.47;100.00
42621;BME280;28252;53.336;-6.298;2023-03-03T02:33:45;102503.03;;;20.46;100.00
42621;BME280;28252;53.336;-6.298;2023-03-03T02:34:18;102507.47;;;20.47;100.00
42621;BME280;28252;53.336;-6.298;2023-03-03T02:34:56;102506.59;;;20.46;99.83
42621;BME280;28252;53.336;-6.298;2023-03-03T02:35:36;102504.88;;;20.45;99.98
42621;BME280;28252;53.336;-6.298;2023-03-03T02:36:12;102510.28;;;20.45;99.79
42621;BME280;28252;53.336;-6.298;2023-03-03T02:36:45;102504.00;;;20.45;99.99
42621;BME280;28252;53.336;-6.298;2023-03-03T02:37:21;102508.56;;;20.44;99.91
42621;BME280;28252;53.336;-6.298;2023-03-03T02:37:56;102502.31;;;20.44;99.62
42621;BME280;28252;53.336;-6.298;2023-03-03T02:45:12;102508.81;;;20.41;98.99
42621;BME280;28252;53.336;-6.298;2023-03-03T02:45:48;102509.81;;;20.40;99.22
42621;BME280;28252;53.336;-6.298;2023-03-03T02:46:21;102510.66;;;20.41;99.21
42621;BME280;28252;53.336;-6.298;2023-03-03T02:46:53;102512.53;;;20.40;98.52
42621;BME280;28252;53.336;-6.298;2023-03-03T02:47:29;102510.66;;;20.41;98.72
42621;BME280;28252;53.336;-6.298;2023-03-03T02:48:05;102518.91;;;20.39;99.05
42621;BME280;28252;53.336;-6.298;2023-03-03T02:48:36;102516.19;;;20.39;98.93
42621;BME280;28252;53.336;-6.298;2023-03-03T02:49:12;102520.75;;;20.39;99.02
42621;BME280;28252;53.336;-6.298;2023-03-03T02:49:47;102519.03;;;20.38;99.39
42621;BME280;28252;53.336;-6.298;2023-03-03T02:50:21;102517.34;;;20.37;99.21
42621;BME280;28252;53.336;-6.298;2023-03-03T02:50:55;102515.47;;;20.37;98.78
42621;BME280;28252;53.336;-6.298;2023-03-03T02:51:31;102517.34;;;20.37;98.64
42621;BME280;28252;53.336;-6.298;2023-03-03T02:52:05;102511.03;;;20.36;98.67
42621;BME280;28252;53.336;-6.298;2023-03-03T02:52:37;102521.00;;;20.36;98.34
42621;BME280;28252;53.336;-6.298;2023-03-03T02:53:10;102515.59;;;20.36;98.38
42621;BME280;28252;53.336;-6.298;2023-03-03T02:53:45;102517.47;;;20.35;98.40
42621;BME280;28252;53.336;-6.298;2023-03-03T02:54:24;102513.88;;;20.34;98.67
42621;BME280;28252;53.336;-6.298;2023-03-03T02:54:56;102513.88;;;20.34;98.72
42621;BME280;28252;53.336;-6.298;2023-03-03T02:55:27;102519.28;;;20.34;98.50
42621;BME280;28252;53.336;-6.298;2023-03-03T02:56:00;102517.59;;;20.33;98.52
42621;BME280;28252;53.336;-6.298;2023-03-03T02:56:34;102516.72;;;20.33;98.22
42621;BME280;28252;53.336;-6.298;2023-03-03T02:57:07;102514.88;;;20.33;98.47
42621;BME280;28252;53.336;-6.298;2023-03-03T02:58:55;102509.47;;;20.33;98.86
42621;BME280;28252;53.336;-6.298;2023-03-03T02:59:30;102513.16;;;20.32;98.69
42621;BME280;28252;53.336;-6.298;2023-03-03T03:00:08;102515.84;;;20.32;98.46
42621;BME280;28252;53.336;-6.298;2023-03-03T03:00:42;102518.69;;;20.31;98.79
42621;BME280;28252;53.336;-6.298;2023-03-03T03:01:24;102512.41;;;20.30;98.45
42621;BME280;28252;53.336;-6.298;2023-03-03T03:02:02;102518.69;;;20.31;98.26
42621;BME280;28252;53.336;-6.298;2023-03-03T03:02:38;102519.56;;;20.31;99.04
42621;BME280;28252;53.336;-6.298;2023-03-03T03:03:13;102523.25;;;20.30;98.40
42621;BME280;28252;53.336;-6.298;2023-03-03T03:03:50;102523.25;;;20.30;99.14
42621;BME280;28252;53.336;-6.298;2023-03-03T03:04:24;102521.50;;;20.29;99.06
42621;BME280;28252;53.336;-6.298;2023-03-03T03:05:03;102518.06;;;20.27;99.73
42621;BME280;28252;53.336;-6.298;2023-03-03T03:05:35;102518.06;;;20.27;100.00
42621;BME280;28252;53.336;-6.298;2023-03-03T03:06:13;102521.78;;;20.26;100.00
42621;BME280;28252;53.336;-6.298;2023-03-03T03:06:49;102514.66;;;20.25;100.00
42621;BME280;28252;53.336;-6.298;2023-03-03T03:07:24;102511.22;;;20.23;99.90
42621;BME280;28252;53.336;-6.298;2023-03-03T03:07:59;102516.63;;;20.23;99.75
42621;BME280;28252;53.336;-6.298;2023-03-03T03:08:36;102514.91;;;20.22;100.00
42621;BME280;28252;53.336;-6.298;2023-03-03T03:09:14;102521.19;;;20.23;100.00
42621;BME280;28252;53.336;-6.298;2023-03-03T03:09:57;102514.91;;;20.22;100.00
42621;BME280;28252;53.336;-6.298;2023-03-03T03:10:44;102518.59;;;20.21;99.93
42621;BME280;28252;53.336;-6.298;2023-03-03T03:11:19;102512.31;;;20.21;100.00
42621;BME280;28252;53.336;-6.298;2023-03-03T03:11:55;102510.59;;;20.20;100.00
42621;BME280;28252;53.336;-6.298;2023-03-03T03:12:32;102515.13;;;20.19;100.00
42621;BME280;28252;53.336;-6.298;2023-03-03T03:13:07;102515.13;;;20.19;100.00
42621;BME280;28252;53.336;-6.298;2023-03-03T03:13:42;102509.00;;;20.17;100.00
42621;BME280;28252;53.336;-6.298;2023-03-03T03:14:18;102518.00;;;20.18;100.00
42621;BME280;28252;53.336;-6.298;2023-03-03T03:14:53;102514.41;;;20.17;100.00
42621;BME280;28252;53.336;-6.298;2023-03-03T03:15:27;102518.84;;;20.18;100.00
42621;BME280;28252;53.336;-6.298;2023-03-03T03:16:02;102511.69;;;20.17;100.00
42621;BME280;28252;53.336;-6.298;2023-03-03T03:16:38;102515.28;;;20.18;100.00
42621;BME280;28252;53.336;-6.298;2023-03-03T03:17:14;102515.41;;;20.16;99.94
42621;BME280;28252;53.336;-6.298;2023-03-03T03:17:46;102509.25;;;20.14;100.00
42621;BME280;28252;53.336;-6.298;2023-03-03T03:18:17;102510.13;;;20.14;100.00
42621;BME280;28252;53.336;-6.298;2023-03-03T03:18:55;102505.69;;;20.13;100.00
42621;BME280;28252;53.336;-6.298;2023-03-03T03:19:33;102509.38;;;20.12;100.00
42621;BME280;28252;53.336;-6.298;2023-03-03T03:20:09;102518.38;;;20.13;100.00
42621;BME280;28252;53.336;-6.298;2023-03-03T03:20:41;102510.25;;;20.13;100.00
42621;BME280;28252;53.336;-6.298;2023-03-03T03:21:13;102516.63;;;20.12;100.00
42621;BME280;28252;53.336;-6.298;2023-03-03T03:21:51;102519.34;;;20.12;100.00
42621;BME280;28252;53.336;-6.298;2023-03-03T03:22:22;102516.63;;;20.12;100.00
42621;BME280;28252;53.336;-6.298;2023-03-03T03:22:58;102519.34;;;20.12;100.00
42621;BME280;28252;53.336;-6.298;2023-03-03T03:23:29;102512.22;;;20.11;100.00
42621;BME280;28252;53.336;-6.298;2023-03-03T03:24:05;102507.78;;;20.10;100.00
42621;BME280;28252;53.336;-6.298;2023-03-03T03:24:40;102512.22;;;20.11;100.00
42621;BME280;28252;53.336;-6.298;2023-03-03T03:25:13;102508.63;;;20.10;100.00
42621;BME280;28252;53.336;-6.298;2023-03-03T03:25:44;102515.91;;;20.10;100.00
42621;BME280;28252;53.336;-6.298;2023-03-03T03:26:23;102513.19;;;20.10;100.00
42621;BME280;28252;53.336;-6.298;2023-03-03T03:26:57;102503.34;;;20.09;100.00
42621;BME280;28252;53.336;-6.298;2023-03-03T03:27:33;102506.06;;;20.09;100.00
42621;BME280;28252;53.336;-6.298;2023-03-03T03:28:04;102509.78;;;20.08;100.00
42621;BME280;28252;53.336;-6.298;2023-03-03T03:28:42;102511.59;;;20.07;100.00
42621;BME280;28252;53.336;-6.298;2023-03-03T03:29:16;102514.28;;;20.07;100.00
42621;BME280;28252;53.336;-6.298;2023-03-03T03:29:54;102513.44;;;20.07;100.00
42621;BME280;28252;53.336;-6.298;2023-03-03T03:30:28;102511.59;;;20.07;100.00
42621;BME280;28252;53.336;-6.298;2023-03-03T03:31:01;102510.75;;;20.07;100.00
42621;BME280;28252;53.336;-6.298;2023-03-03T03:31:37;102511.75;;;20.06;100.00
42621;BME280;28252;53.336;-6.298;2023-03-03T03:32:10;102509.03;;;20.06;100.00
42621;BME280;28252;53.336;-6.298;2023-03-03T03:32:47;102512.72;;;20.05;100.00
42621;BME280;28252;53.336;-6.298;2023-03-03T03:33:21;102518.13;;;20.05;100.00
42621;BME280;28252;53.336;-6.298;2023-03-03T03:33:56;102509.03;;;20.06;100.00
42621;BME280;28252;53.336;-6.298;2023-03-03T03:34:31;102517.28;;;20.04;100.00
42621;BME280;28252;53.336;-6.298;2023-03-03T03:35:07;102509.16;;;20.04;100.00
42621;BME280;28252;53.336;-6.298;2023-03-03T03:35:41;102513.69;;;20.04;100.00
42621;BME280;28252;53.336;-6.298;2023-03-03T03:36:20;102503.88;;;20.03;100.00
42621;BME280;28252;53.336;-6.298;2023-03-03T03:36:53;102507.56;;;20.02;100.00